Lawrence, Massachusetts
Current Conditions -  °F | °C
As of 10:54 PM on Saturday 20 Dec 2014 (Local Time) from KLWM Reporting Station
Overcast Overcast  
Wind Chill: 26°   Ceiling: 4400
Heat Index: 32°   Visibility: 10mi
Dew Point: 25°   Wind: 6mph
Humidity: 75%   Direction: 30°NNE
Pressure: 30.32"   Gusts: NA
Location:  42.71°N, 71.16°W
Report Text: KLWM 210354Z AUTO 03005KT 10SM OVC044 00/M04 A3032 RMK AO2 SLP269 T00001039
Loading
Personal Weather Stations






























Interactive Weather Map New forecast layout! Learn more

10-Day Weather Forecast

Advertisements
Track Severe Weather on mobile